LYPGLYTV

Guest
Details From LYPG - Podgorica
To LYTV - Tivat
Flight Number -
Tags generated
Created
Modified
Stats Distance 25 nm / 46 km
Max Altitude 500 ft / 152 m
Waypoints 3
Social Downloads 1
Likes 0
Share VATSIM

Download

Looking for another format? Having issues loading an existing format? Contact us
Advertisement - Login to hide

Notes

Basic altitude profile: - Ascent Rate: 2500ft/min - Ascent Speed: 250kts - Cruise Altitude: 35000ft - Cruise Speed: 420kts - Descent Rate: 1500ft/min - Descent Speed: 250kts Options: - Use NATs: yes - Use PACOTS: yes - Use low airways: yes - Use high airways: yes

Route

LYPG POD LYTV

ID Type Via Altitude Latitude Longitude Leg Dist Tot Dist Heading (true) Name
O LYPG APT - 0 ft / 0 m 42.36795˚ 19.27572˚ - 0 nm - Podgorica
POD VOR - 500 ft / 152 m 42.38619˚ 19.25461˚ 1 nm 1 nm 319° / 319° PODGORICA VOR-DME
O LYTV APT - 0 ft / 0 m 42.40466˚ 18.72329˚ 23 nm 25 nm 273° / 273° Tivat

Altitude Profile

Advertisement - Login to hide

LYPG

Details ICAO LYPG (TGD)
Name Podgorica
Region Serbia and Montenegro
Timezone Europe/Podgorica (UTC+2.0)
Stats Elevation 141 ft / 43 m (AMSL)
Location 42.367947° 19.275721°
Runways 2
Magnetic Variation 4.297° E

METAR

LYPG 280200Z 36003KT 330V040 9999 FEW100 21/13 Q1017 NOSIG

Decode

TAF

TAF LYPG 272300Z 2800/2824 36005KT 9999 FEW040 SCT090 TX32/2814Z TN18/2803Z PROB30 TEMPO 2813/2817 5000 TSRA FEW033CB BKN040

Decode

Departure Runways

ID Width Length Bearing (true) Bearing (mag) Surface Threshold Offset Overrun Length
08 50 ft / 15 m 7,130 ft / 2,173 m 85.78° 81.48° Asphalt 200 ft / 61 m 0 ft / 0 m
18 148 ft / 45 m 8,214 ft / 2,504 m 184.30° 180.00° Asphalt 250 ft / 76 m 0 ft / 0 m
26 50 ft / 15 m 7,130 ft / 2,173 m 265.79° 261.49° Asphalt 200 ft / 61 m 0 ft / 0 m
36 148 ft / 45 m 8,214 ft / 2,504 m 4.30° 0.00° Asphalt 250 ft / 76 m 0 ft / 0 m

LYTV

Details ICAO LYTV (TIV)
Name Tivat
Region Serbia and Montenegro
Timezone Europe/Podgorica (UTC+2.0)
Stats Elevation 20 ft / 6 m (AMSL)
Location 42.404657° 18.723295°
Runways 1
Magnetic Variation 4.210° E

METAR

LYTV 280200Z VRB01KT 9999 4000NE BR NSC 17/16 Q1016

Decode

TAF

TAF LYTV 272300Z 2800/2824 07005KT 9999 FEW040 TX31/2813Z TN16/2803Z PROB30 TEMPO 2813/2818 5000 TSRA FEW033CB BKN040

Decode

Destination Runways

ID Width Length Bearing (true) Bearing (mag) Surface Threshold Offset Overrun Length
14 148 ft / 45 m 8,206 ft / 2,501 m 139.03° 134.82° Asphalt 300 ft / 91 m 0 ft / 0 m
32 148 ft / 45 m 8,206 ft / 2,501 m 319.04° 314.83° Asphalt 300 ft / 91 m 0 ft / 0 m

Approach Navaids

Runway Type Ident Frequency Range Bearing (true) Bearing (mag) Slope Elevation
32 Localiser TIV 111.30 MHz 50 nm / 93 km 339.00° 334.79° - 56 ft / 17 m (AMSL)
32 DME TIV 111.30 MHz 18 nm / 33 km - - - 49 ft / 15 m (AMSL)

Popular Alternatives